sensor_id;sensor_type;location;lat;lon;timestamp;temperature;humidity
32147;DHT22;32190;49.112;8.598;2023-04-01T00:04:39;14.60;55.30
32147;DHT22;32190;49.112;8.598;2023-04-01T00:10:29;14.60;55.30
32147;DHT22;32190;49.112;8.598;2023-04-01T00:16:20;14.50;55.20
32147;DHT22;32190;49.112;8.598;2023-04-01T00:22:10;14.50;55.20
32147;DHT22;32190;49.112;8.598;2023-04-01T00:28:01;14.50;55.20
32147;DHT22;32190;49.112;8.598;2023-04-01T00:33:55;14.50;55.30
32147;DHT22;32190;49.112;8.598;2023-04-01T00:39:46;14.50;55.20
32147;DHT22;32190;49.112;8.598;2023-04-01T00:45:40;14.50;55.20
32147;DHT22;32190;49.112;8.598;2023-04-01T00:51:31;14.50;55.40
32147;DHT22;32190;49.112;8.598;2023-04-01T00:57:27;14.40;55.30
32147;DHT22;32190;49.112;8.598;2023-04-01T01:03:19;14.40;55.40
32147;DHT22;32190;49.112;8.598;2023-04-01T01:09:30;14.50;55.40
32147;DHT22;32190;49.112;8.598;2023-04-01T01:15:36;14.40;55.60
32147;DHT22;32190;49.112;8.598;2023-04-01T01:27:23;14.30;55.60
32147;DHT22;32190;49.112;8.598;2023-04-01T01:33:42;14.40;55.60
32147;DHT22;32190;49.112;8.598;2023-04-01T01:39:39;14.30;55.60
32147;DHT22;32190;49.112;8.598;2023-04-01T01:45:33;14.40;55.60
32147;DHT22;32190;49.112;8.598;2023-04-01T01:51:26;14.30;55.60
32147;DHT22;32190;49.112;8.598;2023-04-01T01:57:20;14.30;55.70
32147;DHT22;32190;49.112;8.598;2023-04-01T02:03:14;14.30;55.80
32147;DHT22;32190;49.112;8.598;2023-04-01T02:09:08;14.30;55.80
32147;DHT22;32190;49.112;8.598;2023-04-01T02:15:09;14.30;55.70
32147;DHT22;32190;49.112;8.598;2023-04-01T02:21:00;14.30;55.80
32147;DHT22;32190;49.112;8.598;2023-04-01T02:26:51;14.30;55.70
32147;DHT22;32190;49.112;8.598;2023-04-01T02:32:43;14.20;55.60
32147;DHT22;32190;49.112;8.598;2023-04-01T02:38:35;14.20;55.60
32147;DHT22;32190;49.112;8.598;2023-04-01T02:44:26;14.20;55.50
32147;DHT22;32190;49.112;8.598;2023-04-01T02:50:17;14.20;55.50
32147;DHT22;32190;49.112;8.598;2023-04-01T02:56:07;14.20;55.50
32147;DHT22;32190;49.112;8.598;2023-04-01T03:01:58;14.20;55.40
32147;DHT22;32190;49.112;8.598;2023-04-01T03:07:49;14.20;55.30
32147;DHT22;32190;49.112;8.598;2023-04-01T03:13:39;14.10;55.20
32147;DHT22;32190;49.112;8.598;2023-04-01T03:19:30;14.10;55.20
32147;DHT22;32190;49.112;8.598;2023-04-01T03:25:21;14.10;55.20
32147;DHT22;32190;49.112;8.598;2023-04-01T03:31:12;14.00;55.10
32147;DHT22;32190;49.112;8.598;2023-04-01T03:37:04;14.10;55.80
32147;DHT22;32190;49.112;8.598;2023-04-01T03:42:56;14.00;55.10
32147;DHT22;32190;49.112;8.598;2023-04-01T03:48:47;14.10;55.20
32147;DHT22;32190;49.112;8.598;2023-04-01T03:54:37;14.00;55.10
32147;DHT22;32190;49.112;8.598;2023-04-01T04:00:29;14.00;55.10
32147;DHT22;32190;49.112;8.598;2023-04-01T04:06:20;14.00;55.20
32147;DHT22;32190;49.112;8.598;2023-04-01T04:12:10;14.00;55.20
32147;DHT22;32190;49.112;8.598;2023-04-01T04:18:01;14.00;55.10
32147;DHT22;32190;49.112;8.598;2023-04-01T04:23:52;14.00;55.10
32147;DHT22;32190;49.112;8.598;2023-04-01T04:29:42;14.00;55.10
32147;DHT22;32190;49.112;8.598;2023-04-01T04:35:33;14.00;55.70
32147;DHT22;32190;49.112;8.598;2023-04-01T04:41:23;14.00;55.10
32147;DHT22;32190;49.112;8.598;2023-04-01T04:47:14;14.00;55.10
32147;DHT22;32190;49.112;8.598;2023-04-01T04:53:05;14.00;55.00
32147;DHT22;32190;49.112;8.598;2023-04-01T04:58:55;14.00;54.90
32147;DHT22;32190;49.112;8.598;2023-04-01T05:04:46;14.00;54.90
32147;DHT22;32190;49.112;8.598;2023-04-01T05:10:36;14.00;54.90
32147;DHT22;32190;49.112;8.598;2023-04-01T05:16:27;14.00;55.00
32147;DHT22;32190;49.112;8.598;2023-04-01T05:22:17;14.00;55.00
32147;DHT22;32190;49.112;8.598;2023-04-01T05:28:08;14.00;55.00
32147;DHT22;32190;49.112;8.598;2023-04-01T05:33:59;14.00;55.00
32147;DHT22;32190;49.112;8.598;2023-04-01T05:39:50;13.90;54.90
32147;DHT22;32190;49.112;8.598;2023-04-01T05:45:40;14.00;55.00
32147;DHT22;32190;49.112;8.598;2023-04-01T05:51:31;14.00;55.00
32147;DHT22;32190;49.112;8.598;2023-04-01T05:57:21;14.00;55.00
32147;DHT22;32190;49.112;8.598;2023-04-01T06:03:12;14.00;55.00
32147;DHT22;32190;49.112;8.598;2023-04-01T06:09:32;14.00;55.00
32147;DHT22;32190;49.112;8.598;2023-04-01T06:21:33;14.00;55.00
32147;DHT22;32190;49.112;8.598;2023-04-01T06:52:42;13.90;55.80
32147;DHT22;32190;49.112;8.598;2023-04-01T07:04:51;13.80;56.20
32147;DHT22;32190;49.112;8.598;2023-04-01T07:11:04;13.90;56.00
32147;DHT22;32190;49.112;8.598;2023-04-01T07:22:55;13.90;56.40
32147;DHT22;32190;49.112;8.598;2023-04-01T07:28:46;13.90;56.50
32147;DHT22;32190;49.112;8.598;2023-04-01T07:34:55;14.00;56.40
32147;DHT22;32190;49.112;8.598;2023-04-01T07:41:08;14.00;56.70
32147;DHT22;32190;49.112;8.598;2023-04-01T07:47:31;14.00;57.20
32147;DHT22;32190;49.112;8.598;2023-04-01T07:53:46;14.00;57.20
32147;DHT22;32190;49.112;8.598;2023-04-01T08:23:41;13.90;57.60
32147;DHT22;32190;49.112;8.598;2023-04-01T08:29:48;14.00;58.00
32147;DHT22;32190;49.112;8.598;2023-04-01T08:42:08;13.90;58.10
32147;DHT22;32190;49.112;8.598;2023-04-01T08:48:17;14.00;58.10
32147;DHT22;32190;49.112;8.598;2023-04-01T08:54:56;14.00;58.80
32147;DHT22;32190;49.112;8.598;2023-04-01T09:00:56;14.10;58.60
32147;DHT22;32190;49.112;8.598;2023-04-01T09:06:58;14.20;58.70
32147;DHT22;32190;49.112;8.598;2023-04-01T09:12:59;14.20;58.80
32147;DHT22;32190;49.112;8.598;2023-04-01T09:37:35;14.40;59.10
32147;DHT22;32190;49.112;8.598;2023-04-01T11:43:41;14.90;59.20
32147;DHT22;32190;49.112;8.598;2023-04-01T12:08:09;14.90;59.50
32147;DHT22;32190;49.112;8.598;2023-04-01T12:51:56;15.00;59.70
32147;DHT22;32190;49.112;8.598;2023-04-01T13:10:52;15.10;59.60
32147;DHT22;32190;49.112;8.598;2023-04-01T13:17:29;15.20;59.60
32147;DHT22;32190;49.112;8.598;2023-04-01T13:35:06;15.10;59.40
32147;DHT22;32190;49.112;8.598;2023-04-01T13:41:28;15.10;59.50
32147;DHT22;32190;49.112;8.598;2023-04-01T14:06:12;15.00;59.20
32147;DHT22;32190;49.112;8.598;2023-04-01T14:12:27;15.00;59.30
32147;DHT22;32190;49.112;8.598;2023-04-01T14:18:36;14.90;59.30
32147;DHT22;32190;49.112;8.598;2023-04-01T14:31:18;15.00;59.40
32147;DHT22;32190;49.112;8.598;2023-04-01T14:43:51;15.00;59.20
32147;DHT22;32190;49.112;8.598;2023-04-01T14:49:48;15.00;59.80
32147;DHT22;32190;49.112;8.598;2023-04-01T15:01:43;14.90;59.40
32147;DHT22;32190;49.112;8.598;2023-04-01T15:08:00;15.00;59.50
32147;DHT22;32190;49.112;8.598;2023-04-01T15:13:58;14.90;59.70
32147;DHT22;32190;49.112;8.598;2023-04-01T15:20:10;14.90;59.60
32147;DHT22;32190;49.112;8.598;2023-04-01T15:50:52;15.00;59.70
32147;DHT22;32190;49.112;8.598;2023-04-01T15:57:32;15.00;59.80
32147;DHT22;32190;49.112;8.598;2023-04-01T16:09:43;15.00;59.60
32147;DHT22;32190;49.112;8.598;2023-04-01T16:16:14;15.00;59.70
32147;DHT22;32190;49.112;8.598;2023-04-01T16:22:13;15.00;59.50
32147;DHT22;32190;49.112;8.598;2023-04-01T16:59:17;14.90;59.30
32147;DHT22;32190;49.112;8.598;2023-04-01T17:05:12;14.90;59.30
32147;DHT22;32190;49.112;8.598;2023-04-01T17:11:36;14.90;59.20
32147;DHT22;32190;49.112;8.598;2023-04-01T17:18:06;14.80;59.10
32147;DHT22;32190;49.112;8.598;2023-04-01T17:24:29;14.80;59.20
32147;DHT22;32190;49.112;8.598;2023-04-01T17:30:26;14.80;59.10
32147;DHT22;32190;49.112;8.598;2023-04-01T17:43:09;14.70;59.10
32147;DHT22;32190;49.112;8.598;2023-04-01T18:07:11;14.70;58.80
32147;DHT22;32190;49.112;8.598;2023-04-01T18:19:55;14.60;58.60
32147;DHT22;32190;49.112;8.598;2023-04-01T18:25:50;14.60;58.60
32147;DHT22;32190;49.112;8.598;2023-04-01T18:31:48;14.60;58.60
32147;DHT22;32190;49.112;8.598;2023-04-01T18:37:50;14.60;58.60
32147;DHT22;32190;49.112;8.598;2023-04-01T18:56:11;14.50;58.70
32147;DHT22;32190;49.112;8.598;2023-04-01T19:02:20;14.50;58.50
32147;DHT22;32190;49.112;8.598;2023-04-01T19:08:19;14.50;58.60
32147;DHT22;32190;49.112;8.598;2023-04-01T19:14:39;14.50;58.60
32147;DHT22;32190;49.112;8.598;2023-04-01T19:20:47;14.40;58.70
32147;DHT22;32190;49.112;8.598;2023-04-01T19:45:49;14.40;58.60
32147;DHT22;32190;49.112;8.598;2023-04-01T19:51:50;14.40;58.60
32147;DHT22;32190;49.112;8.598;2023-04-01T19:57:52;14.40;58.80
32147;DHT22;32190;49.112;8.598;2023-04-01T20:04:03;14.30;58.80
32147;DHT22;32190;49.112;8.598;2023-04-01T20:10:17;14.30;58.80
32147;DHT22;32190;49.112;8.598;2023-04-01T20:16:11;14.30;58.70
32147;DHT22;32190;49.112;8.598;2023-04-01T20:22:04;14.30;58.60
32147;DHT22;32190;49.112;8.598;2023-04-01T20:34:21;14.30;58.80
32147;DHT22;32190;49.112;8.598;2023-04-01T20:40:29;14.30;58.60
32147;DHT22;32190;49.112;8.598;2023-04-01T20:52:20;14.30;58.40
32147;DHT22;32190;49.112;8.598;2023-04-01T21:17:33;14.20;58.60
32147;DHT22;32190;49.112;8.598;2023-04-01T21:29:55;14.20;58.60
32147;DHT22;32190;49.112;8.598;2023-04-01T21:36:52;14.20;58.60
32147;DHT22;32190;49.112;8.598;2023-04-01T21:42:32;14.20;58.60
32147;DHT22;32190;49.112;8.598;2023-04-01T22:01:14;14.10;58.50
32147;DHT22;32190;49.112;8.598;2023-04-01T22:07:37;14.10;58.60
32147;DHT22;32190;49.112;8.598;2023-04-01T22:13:45;14.10;58.60
32147;DHT22;32190;49.112;8.598;2023-04-01T22:19:53;14.20;58.70
32147;DHT22;32190;49.112;8.598;2023-04-01T22:32:15;14.10;58.70
32147;DHT22;32190;49.112;8.598;2023-04-01T22:51:18;14.10;58.80
32147;DHT22;32190;49.112;8.598;2023-04-01T22:57:37;14.10;58.60
32147;DHT22;32190;49.112;8.598;2023-04-01T23:03:46;14.10;58.60
32147;DHT22;32190;49.112;8.598;2023-04-01T23:09:39;14.00;58.60
32147;DHT22;32190;49.112;8.598;2023-04-01T23:15:43;14.00;58.50
32147;DHT22;32190;49.112;8.598;2023-04-01T23:21:44;14.00;58.60
32147;DHT22;32190;49.112;8.598;2023-04-01T23:40:04;14.00;58.50
32147;DHT22;32190;49.112;8.598;2023-04-01T23:45:56;14.00;58.40
32147;DHT22;32190;49.112;8.598;2023-04-01T23:51:58;13.90;58.40
